createdAt,value
2019-05-11T00:02:23.538Z,99151.16
2019-05-11T00:05:12.076Z,99143.20
2019-05-11T00:08:02.666Z,99134.77
2019-05-11T00:10:52.134Z,99133.81
2019-05-11T00:13:41.560Z,99121.00
2019-05-11T00:16:30.445Z,99122.74
2019-05-11T00:19:19.905Z,99122.20
2019-05-11T00:22:09.337Z,99133.02
2019-05-11T00:24:58.187Z,99136.84
2019-05-11T00:27:46.837Z,99125.00
2019-05-11T00:30:35.619Z,99112.55
2019-05-11T00:33:25.090Z,99102.45
2019-05-11T00:36:14.617Z,99071.66
2019-05-11T00:39:06.833Z,99069.09
2019-05-11T00:41:56.747Z,99062.46
2019-05-11T00:44:47.272Z,99049.80
2019-05-11T00:47:36.915Z,99037.86
2019-05-11T00:50:38.005Z,99033.95
2019-05-11T00:53:16.497Z,99029.54
2019-05-11T00:56:05.871Z,99026.59
2019-05-11T00:58:54.456Z,99028.10
2019-05-11T01:01:44.575Z,99012.61
2019-05-11T01:04:33.944Z,99016.27
2019-05-11T01:07:22.356Z,99019.95
2019-05-11T01:10:23.807Z,99014.45
2019-05-11T01:13:02.211Z,99005.98
2019-05-11T01:15:51.869Z,99008.78
2019-05-11T01:18:41.244Z,98998.72
2019-05-11T01:21:30.991Z,98992.97
2019-05-11T01:24:20.205Z,98983.58
2019-05-11T01:27:08.887Z,98979.61
2019-05-11T01:29:59.302Z,98984.88
2019-05-11T01:32:48.994Z,98993.09
2019-05-11T01:35:38.219Z,98996.75
2019-05-11T01:38:27.483Z,98993.77
2019-05-11T01:41:17.135Z,99000.95
2019-05-11T01:44:06.290Z,98997.13
2019-05-11T01:46:55.013Z,98987.90
2019-05-11T01:49:45.101Z,98970.85
2019-05-11T01:52:34.420Z,98956.67
2019-05-11T01:55:23.199Z,98933.78
2019-05-11T01:58:12.159Z,98912.94
2019-05-11T02:01:01.765Z,98904.08
2019-05-11T02:03:50.926Z,98906.47
2019-05-11T02:06:39.719Z,98908.17
2019-05-11T02:09:28.369Z,98909.19
2019-05-11T02:12:17.021Z,98910.08
2019-05-11T02:15:05.698Z,98910.05
2019-05-11T02:17:54.968Z,98891.20
2019-05-11T02:20:45.099Z,98871.05
2019-05-11T02:23:34.640Z,98868.02
2019-05-11T02:26:23.964Z,98865.58
2019-05-11T02:29:13.318Z,98863.93
2019-05-11T02:32:01.927Z,98868.19
2019-05-11T02:34:51.149Z,98864.41
2019-05-11T02:37:40.680Z,98853.17
2019-05-11T02:40:29.987Z,98845.84
2019-05-11T02:43:19.883Z,98844.41
2019-05-11T02:46:08.952Z,98841.81
2019-05-11T02:48:57.872Z,98853.89
2019-05-11T02:51:46.777Z,98869.04
2019-05-11T02:54:36.374Z,98883.94
2019-05-11T02:57:25.357Z,98872.83
2019-05-11T03:00:15.746Z,98865.42
2019-05-11T03:03:04.117Z,98866.02
2019-05-11T03:05:53.378Z,98860.41
2019-05-11T03:08:42.684Z,98849.33
2019-05-11T03:11:31.865Z,98852.59
2019-05-11T03:14:21.666Z,98869.56
2019-05-11T03:17:18.003Z,98864.55
2019-05-11T03:20:07.610Z,98857.03
2019-05-11T03:22:56.692Z,98852.65
2019-05-11T03:25:46.126Z,98831.98
2019-05-11T03:28:35.281Z,98836.84
2019-05-11T03:31:23.610Z,98842.23
2019-05-11T03:34:13.105Z,98834.25
2019-05-11T03:37:02.421Z,98822.88
2019-05-11T03:39:52.200Z,98835.91
2019-05-11T03:42:40.930Z,98830.18
2019-05-11T03:45:29.916Z,98820.41
2019-05-11T03:48:19.576Z,98819.16
2019-05-11T03:51:09.047Z,98819.29
2019-05-11T03:53:58.250Z,98818.47
2019-05-11T03:56:48.316Z,98809.04
2019-05-11T03:59:37.647Z,98810.82
2019-05-11T04:02:26.797Z,98807.09
2019-05-11T04:05:16.128Z,98802.55
2019-05-11T04:08:05.044Z,98802.31
2019-05-11T04:10:54.044Z,98796.79
2019-05-11T04:13:43.642Z,98803.61
2019-05-11T04:16:32.922Z,98796.97
2019-05-11T04:19:21.985Z,98817.32
2019-05-11T04:22:11.707Z,98830.05
2019-05-11T04:25:01.015Z,98819.70
2019-05-11T04:27:49.720Z,98821.70
2019-05-11T04:30:39.326Z,98825.42
2019-05-11T04:33:32.748Z,98828.34
2019-05-11T04:36:19.001Z,98827.39
2019-05-11T04:39:07.436Z,98829.70
2019-05-11T04:41:56.698Z,98825.80
2019-05-11T04:44:46.718Z,98827.78
2019-05-11T04:47:35.862Z,98831.69
2019-05-11T04:50:25.498Z,98821.54
2019-05-11T04:53:14.923Z,98823.23
2019-05-11T04:56:03.236Z,98826.55
2019-05-11T04:58:52.643Z,98829.91
2019-05-11T05:01:42.106Z,98817.64
2019-05-11T05:04:31.610Z,98828.77
2019-05-11T05:07:20.834Z,98821.05
2019-05-11T05:10:14.103Z,98823.83
2019-05-11T05:13:10.354Z,98821.56
2019-05-11T05:15:51.267Z,98816.23
2019-05-11T05:18:40.208Z,98814.05
2019-05-11T05:21:29.321Z,98820.14
2019-05-11T05:24:17.797Z,98820.86
2019-05-11T05:27:07.300Z,98836.38
2019-05-11T05:29:57.345Z,98821.28
2019-05-11T05:32:45.739Z,98830.41
2019-05-11T05:35:34.833Z,98834.36
2019-05-11T05:38:23.755Z,98840.78
2019-05-11T05:41:12.448Z,98835.39
2019-05-11T05:44:01.824Z,98832.86
2019-05-11T05:46:50.451Z,98831.11
2019-05-11T05:49:39.882Z,98837.55
2019-05-11T05:52:29.769Z,98844.10
2019-05-11T05:55:19.731Z,98835.84
2019-05-11T05:58:08.484Z,98825.11
2019-05-11T06:00:57.647Z,98835.94
2019-05-11T06:03:46.728Z,98838.22
2019-05-11T06:06:35.605Z,98835.58
2019-05-11T06:09:24.797Z,98833.31
2019-05-11T06:12:14.710Z,98841.80
2019-05-11T06:15:04.777Z,98838.19
2019-05-11T06:17:54.431Z,98838.55
2019-05-11T06:20:44.088Z,98839.36
2019-05-11T06:23:32.441Z,98827.44
2019-05-11T06:26:22.430Z,98837.25
2019-05-11T06:29:12.101Z,98838.78
2019-05-11T06:32:01.717Z,98832.80
2019-05-11T06:34:51.665Z,98816.03
2019-05-11T06:37:40.857Z,98827.50
2019-05-11T06:40:30.257Z,98836.97
2019-05-11T06:43:19.792Z,98829.97
2019-05-11T06:46:10.305Z,98833.22
2019-05-11T06:48:59.960Z,98827.84
2019-05-11T06:51:49.088Z,98831.27
2019-05-11T06:54:37.912Z,98832.58
2019-05-11T06:57:26.858Z,98829.65
2019-05-11T07:00:16.508Z,98830.95
2019-05-11T07:03:06.044Z,98838.15
2019-05-11T07:05:54.351Z,98837.65
2019-05-11T07:08:43.980Z,98836.50
2019-05-11T07:11:33.145Z,98829.63
2019-05-11T07:14:22.606Z,98829.63
2019-05-11T07:17:11.569Z,98831.38
2019-05-11T07:20:00.894Z,98840.09
2019-05-11T07:22:50.576Z,98826.19
2019-05-11T07:25:39.367Z,98826.22
2019-05-11T07:28:28.808Z,98826.22
2019-05-11T07:31:17.932Z,98835.20
2019-05-11T07:34:08.142Z,98828.34
2019-05-11T07:36:58.053Z,98835.02
2019-05-11T07:39:48.735Z,98843.89
2019-05-11T07:42:38.390Z,98844.66
2019-05-11T07:45:29.114Z,98834.34
2019-05-11T07:48:18.799Z,98833.99
2019-05-11T07:51:08.893Z,98831.17
2019-05-11T07:53:58.160Z,98832.63
2019-05-11T07:56:47.946Z,98838.44
2019-05-11T07:59:38.290Z,98847.37
2019-05-11T08:02:28.498Z,98843.31
2019-05-11T08:05:18.130Z,98856.89
2019-05-11T08:08:08.702Z,98845.58
2019-05-11T08:10:58.773Z,98850.70
2019-05-11T08:13:48.241Z,98859.91
2019-05-11T08:16:39.126Z,98860.22
2019-05-11T08:19:28.432Z,98861.18
2019-05-11T08:22:22.147Z,98862.88
2019-05-11T08:25:09.284Z,98869.00
2019-05-11T08:27:59.235Z,98867.58
2019-05-11T08:30:48.784Z,98867.58
2019-05-11T08:33:38.896Z,98864.95
2019-05-11T08:36:29.134Z,98885.53
2019-05-11T08:39:18.733Z,98888.19
2019-05-11T08:42:08.710Z,98888.19
2019-05-11T08:45:15.350Z,98886.94
2019-05-11T08:47:49.910Z,98886.94
2019-05-11T08:50:38.662Z,98902.41
2019-05-11T08:53:28.527Z,98885.84
2019-05-11T08:56:18.899Z,98900.10
2019-05-11T08:59:10.106Z,98901.15
2019-05-11T09:01:59.017Z,98905.86
2019-05-11T09:04:48.581Z,98906.33
2019-05-11T09:07:38.515Z,98893.23
2019-05-11T09:10:28.190Z,98896.05
2019-05-11T09:13:18.580Z,98898.46
2019-05-11T09:16:08.066Z,98902.61
2019-05-11T09:18:58.275Z,98915.71
2019-05-11T09:21:48.235Z,98914.05
2019-05-11T09:24:38.598Z,98925.21
2019-05-11T09:27:28.574Z,98928.76
2019-05-11T09:30:18.484Z,98933.97
2019-05-11T09:33:08.594Z,98939.03
2019-05-11T09:35:58.545Z,98937.30
2019-05-11T09:38:49.040Z,98937.65
2019-05-11T09:41:38.523Z,98940.83
2019-05-11T09:44:29.041Z,98950.25
2019-05-11T09:47:18.940Z,98964.88
2019-05-11T09:50:08.926Z,98976.53
2019-05-11T09:52:58.487Z,98976.19
2019-05-11T09:55:48.241Z,98978.45
2019-05-11T09:58:38.725Z,98968.80
2019-05-11T10:01:29.654Z,98976.16
2019-05-11T10:04:19.182Z,98975.16
2019-05-11T10:07:09.114Z,98957.02
2019-05-11T10:09:58.621Z,98967.16
2019-05-11T10:12:48.988Z,98967.16
2019-05-11T10:15:38.726Z,98984.54
2019-05-11T10:18:29.652Z,98990.94
2019-05-11T10:21:18.978Z,98981.07
2019-05-11T10:24:08.618Z,98989.06
2019-05-11T10:26:59.026Z,98990.22
2019-05-11T10:29:48.488Z,98992.84
2019-05-11T10:32:38.689Z,99017.03
2019-05-11T10:35:28.866Z,99017.03
2019-05-11T10:38:18.213Z,99018.47
2019-05-11T10:41:08.713Z,99017.05
2019-05-11T10:43:58.045Z,99021.35
2019-05-11T10:46:48.350Z,99027.08
2019-05-11T10:49:37.969Z,99022.97
2019-05-11T10:52:28.605Z,99026.23
2019-05-11T10:55:19.352Z,99016.35
2019-05-11T10:57:49.985Z,99016.20
2019-05-11T11:00:21.980Z,99013.92
2019-05-11T11:02:52.767Z,99009.20
2019-05-11T11:05:23.625Z,99007.89
2019-05-11T11:07:54.403Z,99012.64
2019-05-11T11:10:25.242Z,99015.75
2019-05-11T11:12:57.840Z,99017.40
2019-05-11T11:15:29.041Z,99022.64
2019-05-11T11:18:00.205Z,99027.55
2019-05-11T11:20:31.443Z,99024.30
2019-05-11T11:23:02.391Z,99021.99
2019-05-11T11:25:33.303Z,99025.45
2019-05-11T11:28:04.076Z,99022.66
2019-05-11T11:30:35.001Z,99027.91
2019-05-11T11:33:07.817Z,99027.73
2019-05-11T11:35:39.114Z,99034.78
2019-05-11T11:38:10.423Z,99033.78
2019-05-11T11:40:42.910Z,99026.57
2019-05-11T11:43:14.042Z,99029.49
2019-05-11T11:45:44.846Z,99030.91
2019-05-11T11:48:15.606Z,99035.09
2019-05-11T11:50:48.103Z,99047.92
2019-05-11T11:53:19.116Z,99048.93
2019-05-11T11:55:49.956Z,99056.28
2019-05-11T11:58:23.763Z,99059.84
2019-05-11T12:00:54.398Z,99066.56
2019-05-11T12:03:27.533Z,99062.15
2019-05-11T12:05:58.259Z,99061.77
2019-05-11T12:08:30.005Z,99065.28
2019-05-11T12:11:00.867Z,99069.61
2019-05-11T12:13:31.950Z,99081.53
2019-05-11T12:16:02.795Z,99095.34
2019-05-11T12:18:33.893Z,99097.31
2019-05-11T12:21:05.007Z,99106.90
2019-05-11T12:23:38.100Z,99102.71
2019-05-11T12:26:08.787Z,99106.27
2019-05-11T12:28:39.800Z,99112.14
2019-05-11T12:31:10.581Z,99123.25
2019-05-11T12:33:41.663Z,99124.45
2019-05-11T12:36:12.443Z,99133.27
2019-05-11T12:38:43.447Z,99138.89
2019-05-11T12:41:14.462Z,99146.42
2019-05-11T12:43:45.451Z,99152.98
2019-05-11T12:46:18.643Z,99157.24
2019-05-11T12:48:48.826Z,99155.92
2019-05-11T12:51:19.776Z,99158.50
2019-05-11T12:53:50.724Z,99153.56
2019-05-11T12:56:21.871Z,99155.89
2019-05-11T12:58:53.406Z,99149.05
2019-05-11T13:01:24.561Z,99155.61
2019-05-11T13:03:57.902Z,99159.87
2019-05-11T13:06:28.702Z,99161.18
2019-05-11T13:09:02.006Z,99164.26
2019-05-11T13:11:33.728Z,99176.09
2019-05-11T13:14:04.933Z,99189.69
2019-05-11T13:16:37.865Z,99210.60
2019-05-11T13:19:08.986Z,99206.80
2019-05-11T13:21:40.078Z,99218.64
2019-05-11T13:24:11.207Z,99224.88
2019-05-11T13:26:42.511Z,99236.45
2019-05-11T13:29:13.678Z,99241.00
2019-05-11T13:31:45.065Z,99251.56
2019-05-11T13:34:17.927Z,99253.22
2019-05-11T13:36:49.104Z,99244.59
2019-05-11T13:39:20.728Z,99248.59
2019-05-11T13:41:51.822Z,99249.59
2019-05-11T13:44:22.710Z,99233.77
2019-05-11T13:46:53.681Z,99239.69
2019-05-11T13:49:25.080Z,99237.54
2019-05-11T13:51:58.368Z,99238.06
2019-05-11T13:54:29.775Z,99248.84
2019-05-11T13:57:02.318Z,99250.89
2019-05-11T13:59:34.324Z,99252.81
2019-05-11T14:02:08.141Z,99262.05
2019-05-11T14:04:38.654Z,99275.75
2019-05-11T14:07:09.794Z,99287.80
2019-05-11T14:09:40.930Z,99297.69
2019-05-11T14:12:11.838Z,99302.80
2019-05-11T14:14:42.927Z,99319.52
2019-05-11T14:17:13.833Z,99332.64
2019-05-11T14:19:45.019Z,99328.56
2019-05-11T14:22:17.889Z,99328.40
2019-05-11T14:24:49.089Z,99327.65
2019-05-11T14:27:19.974Z,99328.70
2019-05-11T14:29:50.899Z,99332.19
2019-05-11T14:32:22.929Z,99334.75
2019-05-11T14:34:53.775Z,99346.53
2019-05-11T14:37:24.946Z,99364.81
2019-05-11T14:39:58.232Z,99369.70
2019-05-11T14:42:32.991Z,99374.77
2019-05-11T14:45:04.209Z,99387.87
2019-05-11T14:47:35.433Z,99389.47
2019-05-11T14:50:08.613Z,99400.45
2019-05-11T14:52:39.298Z,99406.48
2019-05-11T14:55:10.358Z,99417.44
2019-05-11T14:57:41.384Z,99418.30
2019-05-11T15:00:13.010Z,99423.39
2019-05-11T15:02:49.265Z,99427.23
2019-05-11T15:05:21.858Z,99438.64
2019-05-11T15:07:53.152Z,99438.38
2019-05-11T15:10:24.159Z,99452.37
2019-05-11T15:12:55.283Z,99458.30
2019-05-11T15:15:27.960Z,99459.95
2019-05-11T15:17:58.995Z,99463.23
2019-05-11T15:20:29.863Z,99475.59
2019-05-11T15:23:00.749Z,99472.46
2019-05-11T15:25:31.591Z,99473.61
2019-05-11T15:28:02.474Z,99470.53
2019-05-11T15:30:33.369Z,99477.80
2019-05-11T15:33:04.503Z,99477.92
2019-05-11T15:35:37.754Z,99474.91
2019-05-11T15:38:08.892Z,99473.61
2019-05-11T15:40:39.951Z,99481.00
2019-05-11T15:43:11.542Z,99479.86
2019-05-11T15:45:42.415Z,99492.61
2019-05-11T15:48:13.679Z,99504.84
2019-05-11T15:50:44.834Z,99501.34
2019-05-11T15:53:17.892Z,99514.73
2019-05-11T15:55:49.127Z,99511.14
2019-05-11T15:58:21.828Z,99524.53
2019-05-11T16:00:53.014Z,99531.26
2019-05-11T16:03:23.866Z,99539.25
2019-05-11T16:05:54.966Z,99548.23
2019-05-11T16:08:28.185Z,99550.70
2019-05-11T16:10:59.775Z,99553.69
2019-05-11T16:13:30.642Z,99562.88
2019-05-11T16:16:01.635Z,99575.52
2019-05-11T16:18:32.749Z,99584.50
2019-05-11T16:21:03.656Z,99587.16
2019-05-11T16:23:34.887Z,99591.69
2019-05-11T16:26:08.386Z,99594.55
2019-05-11T16:28:39.292Z,99605.41
2019-05-11T16:31:11.865Z,99607.72
2019-05-11T16:33:43.307Z,99618.53
2019-05-11T16:36:17.837Z,99630.36
2019-05-11T16:38:48.527Z,99631.42
2019-05-11T16:41:21.100Z,99653.44
2019-05-11T16:44:10.719Z,99651.20
2019-05-11T16:46:41.643Z,99664.12
2019-05-11T16:49:24.941Z,99661.77
2019-05-11T16:51:45.148Z,99674.79
2019-05-11T16:54:16.120Z,99681.37
2019-05-11T16:56:48.646Z,99690.78
2019-05-11T16:59:19.849Z,99702.28
2019-05-11T17:01:51.022Z,99712.47
2019-05-11T17:04:22.132Z,99717.68
2019-05-11T17:06:53.211Z,99724.33
2019-05-11T17:09:24.134Z,99728.48
2019-05-11T17:11:57.779Z,99735.73
2019-05-11T17:14:28.321Z,99736.09
2019-05-11T17:16:59.510Z,99744.39
2019-05-11T17:19:42.769Z,99755.50
2019-05-11T17:22:03.045Z,99766.75
2019-05-11T17:24:34.384Z,99775.27
2019-05-11T17:27:05.628Z,99777.66
2019-05-11T17:29:38.122Z,99781.44
2019-05-11T17:32:10.359Z,99790.42
2019-05-11T17:34:41.838Z,99792.89
2019-05-11T17:37:13.265Z,99800.59
2019-05-11T17:39:44.251Z,99800.00
2019-05-11T17:42:18.026Z,99800.60
2019-05-11T17:44:48.570Z,99799.05
2019-05-11T17:47:44.643Z,99808.88
2019-05-11T17:50:15.744Z,99809.33
2019-05-11T17:52:47.930Z,99820.09
2019-05-11T17:55:20.717Z,99832.97
2019-05-11T17:57:54.068Z,99840.37
2019-05-11T18:00:24.471Z,99852.80
2019-05-11T18:02:55.376Z,99864.23
2019-05-11T18:05:26.305Z,99872.59
2019-05-11T18:07:58.006Z,99881.09
2019-05-11T18:10:29.966Z,99896.68
2019-05-11T18:13:04.018Z,99902.61
2019-05-11T18:15:34.424Z,99902.92
2019-05-11T18:18:05.852Z,99913.63
2019-05-11T18:20:38.077Z,99915.64
2019-05-11T18:23:09.490Z,99933.95
2019-05-11T18:25:40.315Z,99947.14
2019-05-11T18:28:14.143Z,99958.34
2019-05-11T18:30:44.039Z,99958.03
2019-05-11T18:33:15.376Z,99983.14
2019-05-11T18:35:46.549Z,99984.23
2019-05-11T18:38:19.181Z,99986.05
2019-05-11T18:40:51.898Z,99990.25
2019-05-11T18:43:22.803Z,99997.36
2019-05-11T18:45:53.919Z,100003.14
2019-05-11T18:48:38.107Z,100011.39
2019-05-11T18:51:05.644Z,100019.55
2019-05-11T18:53:36.403Z,100027.55
2019-05-11T18:56:08.759Z,100027.32
2019-05-11T18:58:39.781Z,100034.52
2019-05-11T19:01:10.882Z,100038.83
2019-05-11T19:03:41.720Z,100054.45
2019-05-11T19:06:12.740Z,100058.80
2019-05-11T19:08:44.054Z,100062.07
2019-05-11T19:11:14.790Z,100070.11
2019-05-11T19:13:47.783Z,100061.35
2019-05-11T19:16:18.947Z,100066.67
2019-05-11T19:18:49.681Z,100065.42
2019-05-11T19:21:20.717Z,100076.77
2019-05-11T19:23:51.722Z,100079.98
2019-05-11T19:26:22.496Z,100085.00
2019-05-11T19:28:53.327Z,100085.92
2019-05-11T19:31:24.526Z,100100.61
2019-05-11T19:33:55.361Z,100099.11
2019-05-11T19:36:27.757Z,100112.20
2019-05-11T19:39:00.259Z,100121.03
2019-05-11T19:41:31.108Z,100124.03
2019-05-11T19:44:01.872Z,100125.64
2019-05-11T19:46:32.977Z,100138.50
2019-05-11T19:49:03.854Z,100137.00
2019-05-11T19:51:34.631Z,100133.28
2019-05-11T19:54:05.447Z,100135.36
2019-05-11T19:56:38.384Z,100141.87
2019-05-11T19:59:09.017Z,100151.30
2019-05-11T20:01:40.755Z,100158.16
2019-05-11T20:04:12.059Z,100166.14
2019-05-11T20:06:43.089Z,100166.86
2019-05-11T20:09:14.091Z,100168.93
2019-05-11T20:11:44.874Z,100179.30
2019-05-11T20:14:16.200Z,100191.23
2019-05-11T20:16:47.870Z,100201.55
2019-05-11T20:19:18.861Z,100203.56
2019-05-11T20:21:49.816Z,100206.09
2019-05-11T20:24:20.575Z,100211.66
2019-05-11T20:26:51.594Z,100219.25
2019-05-11T20:29:22.605Z,100227.95
2019-05-11T20:31:53.628Z,100228.06
2019-05-11T20:34:24.630Z,100228.98
2019-05-11T20:36:55.482Z,100226.20
2019-05-11T20:39:28.706Z,100235.09
2019-05-11T20:41:59.280Z,100247.72
2019-05-11T20:44:30.042Z,100247.41
2019-05-11T20:47:01.310Z,100241.38
2019-05-11T20:49:32.383Z,100255.50
2019-05-11T20:52:03.409Z,100244.93
2019-05-11T20:54:34.629Z,100250.27
2019-05-11T20:57:05.727Z,100258.99
2019-05-11T20:59:38.179Z,100257.13
2019-05-11T21:02:10.224Z,100260.17
2019-05-11T21:04:41.213Z,100263.80
2019-05-11T21:07:12.200Z,100264.92
2019-05-11T21:09:43.193Z,100264.46
2019-05-11T21:12:14.213Z,100267.73
2019-05-11T21:14:45.078Z,100263.81
2019-05-11T21:17:18.164Z,100270.83
2019-05-11T21:19:48.640Z,100273.41
2019-05-11T21:22:19.660Z,100275.39
2019-05-11T21:24:50.422Z,100277.49
2019-05-11T21:27:21.245Z,100274.73
2019-05-11T21:29:53.521Z,100271.75
2019-05-11T21:32:24.765Z,100270.66
2019-05-11T21:34:58.353Z,100272.22
2019-05-11T21:37:28.316Z,100276.55
2019-05-11T21:39:59.075Z,100281.16
2019-05-11T21:42:29.853Z,100286.73
2019-05-11T21:45:01.582Z,100293.56
2019-05-11T21:47:32.781Z,100295.20
2019-05-11T21:50:03.744Z,100294.61
2019-05-11T21:52:34.763Z,100292.00
2019-05-11T21:55:06.169Z,100293.47
2019-05-11T21:57:38.801Z,100288.88
2019-05-11T22:00:10.166Z,100294.00
2019-05-11T22:02:42.648Z,100294.87
2019-05-11T22:05:13.475Z,100293.83
2019-05-11T22:07:44.312Z,100304.42
2019-05-11T22:10:17.288Z,100305.36
2019-05-11T22:12:48.993Z,100306.09
2019-05-11T22:15:21.185Z,100315.16
2019-05-11T22:17:52.212Z,100325.92
2019-05-11T22:20:23.200Z,100333.85
2019-05-11T22:22:54.281Z,100331.70
2019-05-11T22:25:25.049Z,100342.86
2019-05-11T22:27:57.612Z,100349.33
2019-05-11T22:30:28.418Z,100351.80
2019-05-11T22:32:59.198Z,100355.45
2019-05-11T22:35:30.461Z,100358.59
2019-05-11T22:38:01.241Z,100358.42
2019-05-11T22:40:33.208Z,100358.52
2019-05-11T22:43:03.998Z,100367.13
2019-05-11T22:45:34.834Z,100365.13
2019-05-11T22:48:07.716Z,100369.97
2019-05-11T22:50:38.407Z,100379.10
2019-05-11T22:53:11.667Z,100383.14
2019-05-11T22:55:41.670Z,100378.83
2019-05-11T22:58:12.690Z,100387.95
2019-05-11T23:00:44.101Z,100391.69
2019-05-11T23:03:14.886Z,100401.24
2019-05-11T23:05:47.729Z,100405.51
2019-05-11T23:08:18.744Z,100406.56
2019-05-11T23:10:49.656Z,100409.30
2019-05-11T23:13:20.437Z,100418.73
2019-05-11T23:15:51.203Z,100416.57
2019-05-11T23:18:22.232Z,100420.35
2019-05-11T23:20:53.108Z,100423.56
2019-05-11T23:23:23.977Z,100423.30
2019-05-11T23:25:54.743Z,100429.51
2019-05-11T23:28:25.660Z,100431.48
2019-05-11T23:30:58.275Z,100435.36
2019-05-11T23:33:29.502Z,100437.45
2019-05-11T23:36:00.513Z,100435.80
2019-05-11T23:38:31.372Z,100440.42
2019-05-11T23:41:02.396Z,100445.79
2019-05-11T23:43:33.163Z,100446.87
2019-05-11T23:46:04.423Z,100458.30
2019-05-11T23:48:38.411Z,100458.30
2019-05-11T23:51:08.806Z,100457.94
2019-05-11T23:53:40.133Z,100457.16
2019-05-11T23:56:11.641Z,100450.94
2019-05-11T23:58:42.637Z,100458.23
